createdAt,value
2023-05-03T00:01:36.190Z,500.00
2023-05-03T00:02:36.305Z,500.00
2023-05-03T00:03:36.130Z,500.00
2023-05-03T00:04:36.106Z,500.00
2023-05-03T00:05:36.163Z,500.00
2023-05-03T00:06:36.178Z,500.00
2023-05-03T00:07:36.106Z,502.00
2023-05-03T00:08:36.097Z,509.00
2023-05-03T00:09:36.098Z,502.00
2023-05-03T00:10:36.100Z,504.00
2023-05-03T00:11:36.059Z,503.00
2023-05-03T00:12:36.062Z,500.00
2023-05-03T00:13:36.058Z,507.00
2023-05-03T00:14:36.057Z,506.00
2023-05-03T00:15:36.043Z,500.00
2023-05-03T00:16:36.074Z,512.00
2023-05-03T00:17:36.051Z,513.00
2023-05-03T00:18:36.019Z,500.00
2023-05-03T00:19:36.018Z,514.00
2023-05-03T00:20:36.009Z,508.00
2023-05-03T00:21:35.991Z,512.00
2023-05-03T00:22:35.985Z,510.00
2023-05-03T00:23:35.972Z,500.00
2023-05-03T00:24:35.972Z,500.00
2023-05-03T00:25:35.969Z,500.00
2023-05-03T00:26:35.968Z,513.00
2023-05-03T00:27:35.968Z,508.00
2023-05-03T00:28:35.942Z,513.00
2023-05-03T00:29:35.950Z,520.00
2023-05-03T00:30:35.952Z,516.00
2023-05-03T00:31:36.001Z,511.00
2023-05-03T00:32:35.959Z,508.00
2023-05-03T00:33:35.932Z,507.00
2023-05-03T00:34:35.923Z,512.00
2023-05-03T00:35:35.938Z,519.00
2023-05-03T00:36:37.150Z,520.00
2023-05-03T00:37:35.901Z,511.00
2023-05-03T00:38:35.888Z,518.00
2023-05-03T00:39:35.896Z,512.00
2023-05-03T00:40:35.876Z,522.00
2023-05-03T00:41:35.874Z,519.00
2023-05-03T00:42:35.872Z,513.00
2023-05-03T00:43:35.855Z,510.00
2023-05-03T00:44:35.869Z,512.00
2023-05-03T00:45:35.870Z,517.00
2023-05-03T00:46:35.859Z,510.00
2023-05-03T00:47:35.863Z,514.00
2023-05-03T00:48:35.830Z,514.00
2023-05-03T00:49:35.808Z,507.00
2023-05-03T00:50:35.820Z,511.00
2023-05-03T00:51:35.806Z,515.00
2023-05-03T00:52:35.812Z,519.00
2023-05-03T00:53:35.801Z,520.00
2023-05-03T00:54:35.815Z,503.00
2023-05-03T00:55:35.807Z,520.00
2023-05-03T00:56:44.395Z,513.00
2023-05-03T00:57:36.816Z,513.00
2023-05-03T00:58:35.799Z,515.00
2023-05-03T00:59:35.795Z,517.00
2023-05-03T01:00:35.776Z,510.00
2023-05-03T01:01:35.839Z,512.00
2023-05-03T01:02:35.810Z,519.00
2023-05-03T01:03:35.848Z,517.00
2023-05-03T01:04:35.750Z,516.00
2023-05-03T01:05:35.760Z,519.00
2023-05-03T01:06:35.879Z,523.00
2023-05-03T01:07:35.749Z,518.00
2023-05-03T01:08:35.731Z,516.00
2023-05-03T01:09:35.711Z,522.00
2023-05-03T01:10:35.701Z,523.00
2023-05-03T01:11:35.716Z,528.00
2023-05-03T01:12:35.745Z,524.00
2023-05-03T01:13:35.800Z,517.00
2023-05-03T01:14:35.835Z,517.00
2023-05-03T01:15:35.875Z,520.00
2023-05-03T01:16:35.908Z,518.00
2023-05-03T01:17:35.900Z,514.00
2023-05-03T01:18:35.869Z,522.00
2023-05-03T01:19:35.872Z,519.00
2023-05-03T01:20:35.918Z,516.00
2023-05-03T01:21:35.862Z,519.00
2023-05-03T01:22:35.859Z,517.00
2023-05-03T01:23:35.878Z,522.00
2023-05-03T01:24:35.885Z,521.00
2023-05-03T01:25:35.876Z,520.00
2023-05-03T01:26:35.866Z,518.00
2023-05-03T01:27:35.894Z,523.00
2023-05-03T01:28:35.934Z,519.00
2023-05-03T01:29:35.976Z,521.00
2023-05-03T01:30:36.010Z,521.00
2023-05-03T01:31:36.084Z,521.00
2023-05-03T01:32:36.096Z,519.00
2023-05-03T01:33:36.127Z,514.00
2023-05-03T01:34:36.208Z,515.00
2023-05-03T01:35:36.223Z,519.00
2023-05-03T01:36:36.200Z,515.00
2023-05-03T01:37:36.268Z,512.00
2023-05-03T01:38:36.221Z,515.00
2023-05-03T01:39:36.223Z,515.00
2023-05-03T01:40:36.273Z,508.00
2023-05-03T01:41:36.226Z,513.00
2023-05-03T01:42:36.236Z,515.00
2023-05-03T01:43:36.241Z,514.00
2023-05-03T01:44:36.232Z,515.00
2023-05-03T01:45:36.305Z,512.00
2023-05-03T01:46:36.314Z,522.00
2023-05-03T01:47:36.434Z,512.00
2023-05-03T01:48:36.400Z,522.00
2023-05-03T01:49:36.440Z,513.00
2023-05-03T01:50:36.508Z,521.00
2023-05-03T01:51:36.522Z,517.00
2023-05-03T01:52:36.587Z,515.00
2023-05-03T01:53:36.618Z,524.00
2023-05-03T01:54:36.686Z,526.00
2023-05-03T01:55:36.743Z,521.00
2023-05-03T01:56:36.869Z,523.00
2023-05-03T01:57:36.838Z,513.00
2023-05-03T01:58:36.862Z,517.00
2023-05-03T01:59:36.908Z,517.00
2023-05-03T02:00:36.971Z,517.00
2023-05-03T02:01:37.106Z,516.00
2023-05-03T02:02:37.110Z,515.00
2023-05-03T02:03:37.097Z,514.00
2023-05-03T02:04:37.140Z,514.00
2023-05-03T02:05:37.116Z,517.00
2023-05-03T02:06:37.140Z,520.00
2023-05-03T02:07:37.187Z,523.00
2023-05-03T02:08:37.220Z,529.00
2023-05-03T02:09:37.256Z,526.00
2023-05-03T02:10:37.324Z,516.00
2023-05-03T02:11:37.359Z,515.00
2023-05-03T02:12:37.362Z,511.00
2023-05-03T02:13:37.370Z,514.00
2023-05-03T02:14:37.370Z,518.00
2023-05-03T02:15:37.370Z,524.00
2023-05-03T02:16:37.422Z,517.00
2023-05-03T02:17:37.428Z,516.00
2023-05-03T02:18:37.399Z,521.00
2023-05-03T02:19:37.387Z,521.00
2023-05-03T02:20:37.458Z,522.00
2023-05-03T02:21:37.493Z,525.00
2023-05-03T02:22:37.558Z,522.00
2023-05-03T02:23:37.591Z,523.00
2023-05-03T02:24:37.647Z,518.00
2023-05-03T02:25:37.657Z,517.00
2023-05-03T02:26:37.674Z,521.00
2023-05-03T02:27:37.673Z,512.00
2023-05-03T02:28:37.669Z,522.00
2023-05-03T02:29:37.709Z,527.00
2023-05-03T02:30:37.797Z,527.00
2023-05-03T02:31:37.708Z,525.00
2023-05-03T02:32:37.793Z,520.00
2023-05-03T02:33:37.735Z,516.00
2023-05-03T02:34:37.734Z,514.00
2023-05-03T02:35:37.734Z,517.00
2023-05-03T02:36:37.731Z,514.00
2023-05-03T02:37:37.779Z,515.00
2023-05-03T02:38:37.775Z,518.00
2023-05-03T02:39:37.798Z,515.00
2023-05-03T02:40:37.790Z,517.00
2023-05-03T02:41:37.769Z,525.00
2023-05-03T02:42:37.781Z,524.00
2023-05-03T02:43:37.797Z,512.00
2023-05-03T02:44:37.769Z,519.00
2023-05-03T02:45:37.786Z,519.00
2023-05-03T02:46:37.827Z,519.00
2023-05-03T02:47:37.894Z,518.00
2023-05-03T02:48:37.790Z,523.00
2023-05-03T02:49:37.805Z,511.00
2023-05-03T02:50:37.785Z,517.00
2023-05-03T02:51:37.816Z,518.00
2023-05-03T02:52:37.827Z,515.00
2023-05-03T02:53:37.820Z,516.00
2023-05-03T02:54:37.806Z,516.00
2023-05-03T02:55:37.817Z,518.00
2023-05-03T02:56:37.857Z,517.00
2023-05-03T02:57:38.270Z,522.00
2023-05-03T02:58:37.965Z,523.00
2023-05-03T02:59:38.002Z,523.00
2023-05-03T03:00:38.063Z,523.00
2023-05-03T03:01:38.104Z,526.00
2023-05-03T03:02:38.221Z,522.00
2023-05-03T03:03:38.236Z,526.00
2023-05-03T03:04:38.142Z,518.00
2023-05-03T03:05:38.173Z,520.00
2023-05-03T03:06:38.202Z,526.00
2023-05-03T03:07:38.173Z,518.00
2023-05-03T03:08:38.188Z,521.00
2023-05-03T03:09:38.205Z,521.00
2023-05-03T03:10:38.213Z,525.00
2023-05-03T03:11:38.217Z,521.00
2023-05-03T03:12:38.233Z,525.00
2023-05-03T03:13:38.278Z,521.00
2023-05-03T03:14:38.316Z,520.00
2023-05-03T03:15:38.366Z,525.00
2023-05-03T03:16:38.469Z,520.00
2023-05-03T03:17:38.437Z,530.00
2023-05-03T03:18:38.437Z,527.00
2023-05-03T03:19:38.413Z,524.00
2023-05-03T03:20:38.459Z,522.00
2023-05-03T03:21:38.434Z,521.00
2023-05-03T03:22:38.443Z,523.00
2023-05-03T03:23:38.460Z,523.00
2023-05-03T03:24:38.469Z,523.00
2023-05-03T03:25:38.476Z,523.00
2023-05-03T03:26:38.481Z,514.00
2023-05-03T03:27:39.805Z,524.00
2023-05-03T03:28:38.512Z,522.00
2023-05-03T03:29:38.551Z,522.00
2023-05-03T03:30:38.638Z,524.00
2023-05-03T03:31:38.723Z,530.00
2023-05-03T03:32:38.781Z,524.00
2023-05-03T03:33:38.775Z,524.00
2023-05-03T03:34:38.788Z,520.00
2023-05-03T03:35:38.763Z,522.00
2023-05-03T03:36:38.770Z,521.00
2023-05-03T03:37:38.773Z,524.00
2023-05-03T03:38:38.814Z,525.00
2023-05-03T03:39:38.782Z,522.00
2023-05-03T03:40:38.792Z,523.00
2023-05-03T03:41:38.784Z,517.00
2023-05-03T03:42:38.802Z,524.00
2023-05-03T03:43:38.811Z,525.00
2023-05-03T03:44:38.862Z,528.00
2023-05-03T03:45:38.894Z,518.00
2023-05-03T03:46:38.999Z,516.00
2023-05-03T03:47:39.088Z,520.00
2023-05-03T03:48:39.065Z,525.00
2023-05-03T03:49:39.145Z,522.00
2023-05-03T03:50:39.215Z,525.00
2023-05-03T03:51:39.308Z,518.00
2023-05-03T03:52:39.294Z,518.00
2023-05-03T03:53:39.287Z,519.00
2023-05-03T03:54:39.315Z,514.00
2023-05-03T03:55:39.364Z,520.00
2023-05-03T03:56:39.415Z,518.00
2023-05-03T03:57:39.488Z,526.00
2023-05-03T03:58:39.525Z,518.00
2023-05-03T03:59:39.584Z,521.00
2023-05-03T04:00:39.619Z,520.00
2023-05-03T04:01:39.683Z,519.00
2023-05-03T04:02:39.693Z,518.00
2023-05-03T04:03:39.704Z,522.00
2023-05-03T04:04:39.690Z,518.00
2023-05-03T04:05:39.658Z,517.00
2023-05-03T04:06:39.756Z,514.00
2023-05-03T04:07:39.724Z,509.00
2023-05-03T04:08:39.761Z,513.00
2023-05-03T04:09:39.832Z,514.00
2023-05-03T04:10:39.900Z,519.00
2023-05-03T04:11:39.953Z,515.00
2023-05-03T04:12:40.015Z,509.00
2023-05-03T04:13:40.037Z,518.00
2023-05-03T04:14:40.098Z,509.00
2023-05-03T04:15:40.159Z,512.00
2023-05-03T04:16:40.238Z,518.00
2023-05-03T04:17:40.293Z,516.00
2023-05-03T04:18:40.234Z,517.00
2023-05-03T04:19:40.263Z,516.00
2023-05-03T04:20:40.268Z,522.00
2023-05-03T04:21:40.262Z,514.00
2023-05-03T04:22:40.282Z,505.00
2023-05-03T04:23:40.299Z,506.00
2023-05-03T04:24:40.303Z,509.00
2023-05-03T04:25:40.327Z,507.00
2023-05-03T04:26:40.412Z,509.00
2023-05-03T04:27:40.442Z,512.00
2023-05-03T04:28:40.500Z,502.00
2023-05-03T04:29:40.559Z,506.00
2023-05-03T04:30:40.623Z,507.00
2023-05-03T04:31:40.663Z,511.00
2023-05-03T04:32:40.802Z,510.00
2023-05-03T04:33:40.800Z,503.00
2023-05-03T04:34:40.824Z,505.00
2023-05-03T04:35:40.865Z,505.00
2023-05-03T04:36:40.929Z,515.00
2023-05-03T04:37:40.975Z,513.00
2023-05-03T04:38:41.007Z,508.00
2023-05-03T04:39:41.007Z,515.00
2023-05-03T04:40:41.006Z,508.00
2023-05-03T04:41:40.999Z,510.00
2023-05-03T04:42:41.059Z,506.00
2023-05-03T04:43:41.088Z,511.00
2023-05-03T04:44:41.162Z,510.00
2023-05-03T04:45:41.172Z,513.00
2023-05-03T04:46:41.290Z,512.00
2023-05-03T04:47:41.228Z,505.00
2023-05-03T04:48:41.164Z,505.00
2023-05-03T04:49:41.182Z,506.00
2023-05-03T04:50:41.243Z,511.00
2023-05-03T04:51:41.286Z,503.00
2023-05-03T04:52:41.357Z,505.00
2023-05-03T04:53:41.404Z,506.00
2023-05-03T04:54:41.459Z,509.00
2023-05-03T04:55:41.489Z,520.00
2023-05-03T04:56:41.556Z,506.00
2023-05-03T04:57:41.641Z,505.00
2023-05-03T04:58:41.634Z,515.00
2023-05-03T04:59:41.670Z,508.00
2023-05-03T05:00:41.711Z,510.00
2023-05-03T05:01:41.743Z,509.00
2023-05-03T05:02:41.813Z,510.00
2023-05-03T05:03:41.827Z,509.00
2023-05-03T05:04:41.696Z,513.00
2023-05-03T05:05:41.721Z,509.00
2023-05-03T05:06:41.761Z,508.00
2023-05-03T05:07:41.749Z,508.00
2023-05-03T05:08:41.731Z,500.00
2023-05-03T05:09:41.723Z,507.00
2023-05-03T05:10:41.736Z,506.00
2023-05-03T05:11:41.733Z,514.00
2023-05-03T05:12:41.782Z,511.00
2023-05-03T05:13:41.759Z,504.00
2023-05-03T05:14:41.748Z,509.00
2023-05-03T05:15:41.736Z,511.00
2023-05-03T05:16:41.844Z,511.00
2023-05-03T05:17:41.945Z,512.00
2023-05-03T05:18:41.771Z,511.00
2023-05-03T05:19:41.767Z,504.00
2023-05-03T05:20:41.746Z,518.00
2023-05-03T05:21:41.754Z,510.00
2023-05-03T05:22:41.800Z,514.00
2023-05-03T05:23:41.839Z,512.00
2023-05-03T05:24:41.887Z,516.00
2023-05-03T05:25:41.930Z,512.00
2023-05-03T05:26:41.940Z,523.00
2023-05-03T05:27:41.941Z,521.00
2023-05-03T05:28:41.922Z,505.00
2023-05-03T05:29:41.924Z,517.00
2023-05-03T05:30:42.008Z,501.00
2023-05-03T05:31:42.006Z,524.00
2023-05-03T05:32:41.943Z,539.00
2023-05-03T05:33:42.010Z,556.00
2023-05-03T05:34:45.099Z,573.00
2023-05-03T05:35:41.912Z,592.00
2023-05-03T05:36:41.930Z,618.00
2023-05-03T05:37:41.973Z,658.00
2023-05-03T05:38:41.885Z,667.00
2023-05-03T05:39:41.894Z,690.00
2023-05-03T05:40:41.867Z,727.00
2023-05-03T05:41:42.008Z,812.00
2023-05-03T05:42:41.868Z,812.00
2023-05-03T05:43:41.856Z,845.00
2023-05-03T05:44:41.858Z,880.00
2023-05-03T05:45:41.841Z,913.00
2023-05-03T05:46:42.028Z,951.00
2023-05-03T05:47:41.925Z,980.00
2023-05-03T05:48:41.811Z,1008.00
2023-05-03T05:49:41.826Z,1059.00
2023-05-03T05:50:41.796Z,1068.00
2023-05-03T05:51:41.819Z,1230.00
2023-05-03T05:52:41.795Z,1364.00
2023-05-03T05:53:41.799Z,1293.00
2023-05-03T05:54:41.784Z,1260.00
2023-05-03T05:55:41.756Z,1251.00
2023-05-03T05:56:41.754Z,1243.00
2023-05-03T05:57:41.773Z,1259.00
2023-05-03T05:58:41.751Z,1283.00
2023-05-03T05:59:41.752Z,1310.00
2023-05-03T06:00:41.751Z,1322.00
2023-05-03T06:01:41.842Z,1347.00
2023-05-03T06:02:42.087Z,1367.00
2023-05-03T06:03:41.717Z,1391.00
2023-05-03T06:04:41.740Z,1380.00
2023-05-03T06:05:41.802Z,1385.00
2023-05-03T06:06:41.732Z,1411.00
2023-05-03T06:07:41.703Z,1455.00
2023-05-03T06:08:41.733Z,1471.00
2023-05-03T06:09:41.665Z,1530.00
2023-05-03T06:10:41.675Z,1637.00
2023-05-03T06:11:41.652Z,1665.00
2023-05-03T06:12:41.656Z,1613.00
2023-05-03T06:13:41.661Z,1614.00
2023-05-03T06:14:51.756Z,1609.00
2023-05-03T06:15:42.648Z,1611.00
2023-05-03T06:16:41.729Z,1612.00
2023-05-03T06:17:41.707Z,1613.00
2023-05-03T06:18:41.613Z,1621.00
2023-05-03T06:19:44.416Z,1631.00
2023-05-03T06:20:41.617Z,1642.00
2023-05-03T06:21:41.610Z,1626.00
2023-05-03T06:22:41.628Z,1628.00
2023-05-03T06:23:41.597Z,1631.00
2023-05-03T06:24:41.586Z,1619.00
2023-05-03T06:25:41.574Z,1616.00
2023-05-03T06:26:41.571Z,1607.00
2023-05-03T06:27:41.567Z,1627.00
2023-05-03T06:28:41.564Z,1608.00
2023-05-03T06:29:41.558Z,1607.00
2023-05-03T06:30:41.589Z,1606.00
2023-05-03T06:31:41.662Z,1549.00
2023-05-03T06:32:41.565Z,1542.00
2023-05-03T06:33:42.029Z,1503.00
2023-05-03T06:34:41.508Z,1520.00
2023-05-03T06:35:41.497Z,1465.00
2023-05-03T06:36:41.502Z,1345.00
2023-05-03T06:37:41.986Z,1390.00
2023-05-03T06:38:41.490Z,1436.00
2023-05-03T06:39:41.615Z,1463.00
2023-05-03T06:40:41.614Z,1484.00
2023-05-03T06:41:41.488Z,1495.00
2023-05-03T06:42:41.453Z,1529.00
2023-05-03T06:43:41.460Z,1531.00
2023-05-03T06:44:41.488Z,1509.00
2023-05-03T06:45:41.432Z,1528.00
2023-05-03T06:46:41.528Z,1531.00
2023-05-03T06:47:41.524Z,1518.00
2023-05-03T06:48:41.557Z,1503.00
2023-05-03T06:49:41.410Z,1496.00
2023-05-03T06:50:41.434Z,1425.00
2023-05-03T06:51:41.398Z,1396.00
2023-05-03T06:52:41.422Z,1390.00
2023-05-03T06:53:41.403Z,1318.00
2023-05-03T06:54:41.383Z,1314.00
2023-05-03T06:55:41.370Z,1247.00
2023-05-03T06:56:41.373Z,1268.00
2023-05-03T06:57:41.512Z,1283.00
2023-05-03T06:58:41.371Z,1275.00
2023-05-03T06:59:41.337Z,1299.00
2023-05-03T07:00:41.332Z,1299.00
2023-05-03T07:01:41.399Z,1306.00
2023-05-03T07:02:41.447Z,1265.00
2023-05-03T07:03:42.116Z,1185.00
2023-05-03T07:04:41.341Z,1228.00
2023-05-03T07:05:41.340Z,1237.00
2023-05-03T07:06:55.222Z,1237.00
2023-05-03T07:07:42.329Z,1237.00
2023-05-03T07:08:41.508Z,1150.00
2023-05-03T07:09:43.480Z,1093.00
2023-05-03T07:10:41.277Z,1183.00
2023-05-03T07:11:41.267Z,1181.00
2023-05-03T07:12:41.246Z,1339.00
2023-05-03T07:13:41.242Z,1366.00
2023-05-03T07:14:41.271Z,1357.00
2023-05-03T07:15:41.236Z,1335.00
2023-05-03T07:16:41.306Z,1045.00
2023-05-03T07:17:41.249Z,1083.00
2023-05-03T07:18:41.507Z,1081.00
2023-05-03T07:19:41.218Z,1085.00
2023-05-03T07:20:41.216Z,1089.00
2023-05-03T07:21:41.204Z,968.00
2023-05-03T07:22:41.193Z,969.00
2023-05-03T07:23:41.197Z,1008.00
2023-05-03T07:24:41.261Z,1017.00
2023-05-03T07:25:41.209Z,1013.00
2023-05-03T07:26:43.675Z,989.00
2023-05-03T07:27:41.192Z,878.00
2023-05-03T07:28:41.170Z,617.00
2023-05-03T07:29:41.152Z,654.00
2023-05-03T07:30:41.156Z,780.00
2023-05-03T07:31:41.154Z,666.00
2023-05-03T07:32:41.194Z,660.00
2023-05-03T07:33:41.223Z,664.00
2023-05-03T07:34:41.133Z,674.00
2023-05-03T07:35:41.121Z,645.00
2023-05-03T07:36:41.112Z,626.00
2023-05-03T07:37:41.107Z,603.00
2023-05-03T07:38:41.126Z,584.00
2023-05-03T07:39:41.092Z,565.00
2023-05-03T07:40:41.074Z,530.00
2023-05-03T07:41:41.308Z,523.00
2023-05-03T07:42:41.090Z,487.00
2023-05-03T07:43:41.600Z,481.00
2023-05-03T07:44:41.077Z,501.00
2023-05-03T07:45:41.096Z,505.00
2023-05-03T07:46:41.037Z,530.00
2023-05-03T07:47:41.082Z,521.00
2023-05-03T07:48:41.027Z,508.00
2023-05-03T07:49:41.044Z,534.00
2023-05-03T07:50:41.029Z,553.00
2023-05-03T07:51:41.008Z,569.00
2023-05-03T07:52:41.014Z,559.00
2023-05-03T07:53:40.981Z,545.00
2023-05-03T07:54:40.992Z,563.00
2023-05-03T07:55:41.014Z,559.00
2023-05-03T07:56:40.982Z,544.00
2023-05-03T07:57:41.129Z,558.00
2023-05-03T07:58:41.701Z,533.00
2023-05-03T07:59:40.948Z,527.00
2023-05-03T08:00:40.944Z,508.00
2023-05-03T08:01:40.929Z,527.00
2023-05-03T08:02:41.092Z,560.00
2023-05-03T08:03:41.190Z,569.00
2023-05-03T08:04:41.270Z,587.00
2023-05-03T08:05:41.048Z,602.00
2023-05-03T08:06:40.946Z,624.00
2023-05-03T08:07:40.895Z,638.00
2023-05-03T08:08:40.916Z,644.00
2023-05-03T08:09:40.917Z,658.00
2023-05-03T08:10:40.885Z,658.00
2023-05-03T08:11:43.134Z,675.00
2023-05-03T08:12:40.896Z,683.00
2023-05-03T08:13:40.852Z,680.00
2023-05-03T08:14:40.864Z,680.00
2023-05-03T08:15:40.940Z,708.00
2023-05-03T08:16:40.861Z,700.00
2023-05-03T08:17:40.892Z,710.00
2023-05-03T08:18:40.844Z,729.00
2023-05-03T08:19:40.829Z,737.00
2023-05-03T08:20:40.816Z,702.00
2023-05-03T08:21:40.816Z,726.00
2023-05-03T08:22:41.023Z,723.00
2023-05-03T08:23:40.794Z,709.00
2023-05-03T08:24:40.802Z,716.00
2023-05-03T08:25:40.794Z,748.00
2023-05-03T08:26:40.783Z,756.00
2023-05-03T08:27:40.789Z,759.00
2023-05-03T08:28:40.770Z,766.00
2023-05-03T08:29:40.828Z,765.00
2023-05-03T08:30:40.763Z,788.00
2023-05-03T08:31:40.793Z,784.00
2023-05-03T08:32:41.519Z,775.00
2023-05-03T08:33:41.552Z,767.00
2023-05-03T08:34:40.760Z,771.00
2023-05-03T08:35:40.718Z,765.00
2023-05-03T08:36:40.705Z,732.00
2023-05-03T08:37:40.740Z,711.00
2023-05-03T08:38:40.704Z,701.00
2023-05-03T08:39:40.704Z,685.00
2023-05-03T08:40:40.679Z,681.00
2023-05-03T08:41:40.699Z,663.00
2023-05-03T08:42:40.718Z,659.00
2023-05-03T08:43:40.720Z,657.00
2023-05-03T08:44:40.710Z,654.00
2023-05-03T08:45:40.986Z,653.00
2023-05-03T08:46:40.735Z,655.00
2023-05-03T08:47:40.750Z,652.00
2023-05-03T08:48:40.660Z,655.00
2023-05-03T08:49:40.667Z,652.00
2023-05-03T08:50:40.628Z,653.00
2023-05-03T08:51:40.619Z,655.00
2023-05-03T08:52:41.021Z,656.00
2023-05-03T08:53:40.631Z,654.00
2023-05-03T08:54:40.593Z,653.00
2023-05-03T08:55:40.608Z,653.00
2023-05-03T08:56:40.609Z,654.00
2023-05-03T08:57:40.578Z,655.00
2023-05-03T08:58:40.599Z,656.00
2023-05-03T08:59:40.587Z,658.00
2023-05-03T09:00:40.588Z,665.00
2023-05-03T09:01:40.773Z,663.00
2023-05-03T09:02:40.748Z,663.00
2023-05-03T09:03:40.769Z,663.00
2023-05-03T09:04:40.762Z,660.00
2023-05-03T09:05:40.826Z,662.00
2023-05-03T09:06:40.910Z,648.00
2023-05-03T09:07:40.933Z,640.00
2023-05-03T09:08:41.019Z,647.00
2023-05-03T09:09:41.082Z,658.00
2023-05-03T09:10:41.137Z,650.00
2023-05-03T09:11:41.188Z,656.00
2023-05-03T09:12:41.377Z,654.00
2023-05-03T09:13:41.335Z,656.00
2023-05-03T09:14:41.411Z,652.00
2023-05-03T09:15:41.419Z,642.00
2023-05-03T09:16:41.601Z,649.00
2023-05-03T09:17:41.672Z,644.00
2023-05-03T09:18:41.590Z,642.00
2023-05-03T09:19:41.641Z,625.00
2023-05-03T09:20:41.673Z,631.00
2023-05-03T09:21:41.704Z,639.00
2023-05-03T09:22:41.705Z,638.00
2023-05-03T09:23:41.759Z,633.00
2023-05-03T09:24:41.788Z,634.00
2023-05-03T09:25:41.818Z,629.00
2023-05-03T09:26:41.831Z,606.00
2023-05-03T09:27:41.879Z,595.00
2023-05-03T09:28:41.910Z,594.00
2023-05-03T09:29:41.941Z,597.00
2023-05-03T09:30:42.001Z,594.00
2023-05-03T09:31:42.073Z,592.00
2023-05-03T09:32:42.068Z,580.00
2023-05-03T09:33:42.156Z,580.00
2023-05-03T09:34:42.531Z,584.00
2023-05-03T09:35:42.170Z,597.00
2023-05-03T09:36:43.997Z,562.00
2023-05-03T09:37:42.553Z,559.00
2023-05-03T09:38:42.222Z,578.00
2023-05-03T09:39:42.239Z,574.00
2023-05-03T09:40:42.274Z,586.00
2023-05-03T09:41:42.280Z,572.00
2023-05-03T09:42:42.364Z,582.00
2023-05-03T09:43:42.365Z,588.00
2023-05-03T09:44:42.384Z,595.00
2023-05-03T09:45:42.442Z,578.00
2023-05-03T09:46:42.453Z,560.00
2023-05-03T09:47:42.501Z,562.00
2023-05-03T09:48:42.487Z,576.00
2023-05-03T09:49:42.470Z,517.00
2023-05-03T09:50:42.436Z,519.00
2023-05-03T09:51:42.428Z,501.00
2023-05-03T09:52:42.456Z,491.00
2023-05-03T09:53:42.476Z,520.00
2023-05-03T09:54:42.450Z,513.00
2023-05-03T09:55:42.443Z,543.00
2023-05-03T09:56:42.446Z,551.00
2023-05-03T09:57:42.474Z,538.00
2023-05-03T09:58:42.441Z,566.00
2023-05-03T09:59:42.476Z,576.00
2023-05-03T10:00:42.454Z,592.00
2023-05-03T10:01:42.479Z,555.00
2023-05-03T10:02:42.519Z,502.00
2023-05-03T10:03:42.527Z,550.00
2023-05-03T10:04:42.560Z,558.00
2023-05-03T10:05:42.648Z,524.00
2023-05-03T10:06:42.688Z,516.00
2023-05-03T10:07:42.641Z,500.00
2023-05-03T10:08:42.625Z,523.00
2023-05-03T10:09:42.646Z,505.00
2023-05-03T10:10:42.674Z,496.00
2023-05-03T10:11:42.750Z,515.00
2023-05-03T10:12:42.831Z,500.00
2023-05-03T10:13:42.847Z,497.00
2023-05-03T10:14:42.918Z,499.00
2023-05-03T10:15:43.021Z,509.00
2023-05-03T10:16:43.035Z,491.00
2023-05-03T10:17:48.293Z,519.00
2023-05-03T10:18:44.129Z,497.00
2023-05-03T10:19:43.085Z,531.00
2023-05-03T10:20:43.073Z,536.00
2023-05-03T10:21:43.087Z,537.00
2023-05-03T10:22:43.589Z,525.00
2023-05-03T10:23:43.063Z,557.00
2023-05-03T10:24:43.046Z,501.00
2023-05-03T10:25:43.055Z,524.00
2023-05-03T10:26:43.028Z,502.00
2023-05-03T10:27:43.018Z,502.00
2023-05-03T10:28:43.032Z,496.00
2023-05-03T10:29:43.029Z,515.00
2023-05-03T10:30:43.112Z,575.00
2023-05-03T10:31:43.206Z,607.00
2023-05-03T10:32:43.492Z,590.00
2023-05-03T10:33:43.267Z,591.00
2023-05-03T10:34:44.621Z,529.00
2023-05-03T10:35:43.460Z,501.00
2023-05-03T10:36:49.730Z,572.00
2023-05-03T10:37:44.630Z,528.00
2023-05-03T10:38:43.486Z,465.00
2023-05-03T10:39:43.446Z,432.00
2023-05-03T10:40:43.461Z,469.00
2023-05-03T10:41:43.427Z,504.00
2023-05-03T10:42:43.420Z,492.00
2023-05-03T10:43:43.431Z,573.00
2023-05-03T10:44:43.428Z,631.00
2023-05-03T10:45:43.419Z,550.00
2023-05-03T10:46:43.423Z,531.00
2023-05-03T10:47:43.472Z,578.00
2023-05-03T10:48:43.402Z,503.00
2023-05-03T10:49:43.386Z,400.00
2023-05-03T10:50:43.367Z,410.00
2023-05-03T10:51:43.364Z,469.00
2023-05-03T10:52:43.441Z,570.00
2023-05-03T10:53:43.538Z,400.00
2023-05-03T10:54:43.509Z,400.00
2023-05-03T10:55:43.542Z,457.00
2023-05-03T10:56:43.540Z,478.00
2023-05-03T10:57:43.534Z,517.00
2023-05-03T10:58:43.604Z,470.00
2023-05-03T10:59:43.634Z,488.00
2023-05-03T11:00:43.685Z,532.00
2023-05-03T11:01:43.751Z,525.00
2023-05-03T11:02:43.743Z,498.00
2023-05-03T11:03:43.773Z,530.00
2023-05-03T11:04:43.835Z,585.00
2023-05-03T11:05:43.870Z,612.00
2023-05-03T11:06:43.944Z,673.00
2023-05-03T11:07:43.991Z,607.00
2023-05-03T11:08:44.034Z,505.00
2023-05-03T11:09:46.350Z,493.00
2023-05-03T11:10:44.064Z,503.00
2023-05-03T11:11:44.049Z,627.00
2023-05-03T11:12:44.034Z,640.00
2023-05-03T11:13:44.111Z,842.00
2023-05-03T11:14:44.036Z,741.00
2023-05-03T11:15:45.782Z,767.00
2023-05-03T11:16:44.047Z,757.00
2023-05-03T11:17:44.050Z,773.00
2023-05-03T11:18:44.033Z,883.00
2023-05-03T11:19:43.987Z,1125.00
2023-05-03T11:20:43.982Z,1585.00
2023-05-03T11:21:44.846Z,1485.00
2023-05-03T11:22:43.973Z,1353.00
2023-05-03T11:23:43.954Z,1367.00
2023-05-03T11:24:43.955Z,1349.00
2023-05-03T11:25:43.938Z,1330.00
2023-05-03T11:26:43.925Z,1430.00
2023-05-03T11:27:45.125Z,1498.00
2023-05-03T11:28:43.944Z,1564.00
2023-05-03T11:29:43.917Z,1621.00
2023-05-03T11:30:43.954Z,1703.00
2023-05-03T11:31:43.975Z,1804.00
2023-05-03T11:32:43.973Z,1862.00
2023-05-03T11:33:44.355Z,1939.00
2023-05-03T11:34:43.919Z,1996.00
2023-05-03T11:35:43.981Z,2042.00
2023-05-03T11:36:43.982Z,2098.00
2023-05-03T11:37:44.042Z,2147.00
2023-05-03T11:38:44.113Z,2191.00
2023-05-03T11:39:44.093Z,2213.00
2023-05-03T11:40:44.122Z,2243.00
2023-05-03T11:41:44.220Z,2275.00
2023-05-03T11:42:44.203Z,2299.00
2023-05-03T11:43:44.204Z,2322.00
2023-05-03T11:44:44.227Z,2351.00
2023-05-03T11:45:44.611Z,2380.00
2023-05-03T11:46:44.382Z,2415.00
2023-05-03T11:47:44.402Z,2441.00
2023-05-03T11:48:44.352Z,2570.00
2023-05-03T11:49:44.399Z,2702.00
2023-05-03T11:50:44.413Z,2773.00
2023-05-03T11:51:46.722Z,2837.00
2023-05-03T11:52:44.443Z,2839.00
2023-05-03T11:53:44.450Z,2853.00
2023-05-03T11:54:44.440Z,2887.00
2023-05-03T11:55:44.404Z,2959.00
2023-05-03T11:56:44.414Z,3068.00
2023-05-03T11:57:44.421Z,3107.00
2023-05-03T11:58:44.437Z,3140.00
2023-05-03T11:59:44.392Z,3148.00
2023-05-03T12:00:44.386Z,3168.00
2023-05-03T12:01:44.420Z,3151.00
2023-05-03T12:02:44.682Z,3171.00
2023-05-03T12:03:44.812Z,3166.00
2023-05-03T12:04:46.220Z,3153.00
2023-05-03T12:05:44.762Z,3189.00
2023-05-03T12:06:45.388Z,3191.00
2023-05-03T12:07:44.661Z,3185.00
2023-05-03T12:08:45.236Z,3197.00
2023-05-03T12:09:50.464Z,3175.00
2023-05-03T12:10:45.935Z,3177.00
2023-05-03T12:11:45.391Z,3178.00
2023-05-03T12:12:49.427Z,3189.00
2023-05-03T12:13:47.651Z,3178.00
2023-05-03T12:14:45.763Z,3177.00
2023-05-03T12:15:48.918Z,3184.00
2023-05-03T12:16:45.359Z,3177.00
2023-05-03T12:17:45.487Z,3184.00
2023-05-03T12:18:46.678Z,3185.00
2023-05-03T12:19:44.773Z,3183.00
2023-05-03T12:21:29.445Z,3190.00
2023-05-03T12:21:54.099Z,3177.00
2023-05-03T12:22:46.034Z,3177.00
2023-05-03T12:23:45.945Z,3177.00
2023-05-03T12:24:45.325Z,3176.00